createdAt,value
2023-01-18T00:01:10.079Z,98572.03
2023-01-18T00:03:38.678Z,98568.16
2023-01-18T00:06:08.208Z,98573.22
2023-01-18T00:08:36.891Z,98569.03
2023-01-18T00:11:05.350Z,98570.09
2023-01-18T00:13:32.850Z,98576.75
2023-01-18T00:16:04.821Z,98587.75
2023-01-18T00:18:35.858Z,98582.00
2023-01-18T00:21:03.994Z,98577.31
2023-01-18T00:23:31.642Z,98590.09
2023-01-18T00:26:03.450Z,98585.44
2023-01-18T00:28:30.965Z,98588.00
2023-01-18T00:30:58.387Z,98587.41
2023-01-18T00:33:25.847Z,98582.44
2023-01-18T00:35:58.063Z,98590.56
2023-01-18T00:38:25.428Z,98586.94
2023-01-18T00:40:53.008Z,98589.50
2023-01-18T00:43:38.199Z,98594.66
2023-01-18T00:46:06.202Z,98594.13
2023-01-18T00:48:33.900Z,98590.56
2023-01-18T00:51:03.068Z,98585.34
2023-01-18T00:53:30.777Z,98588.69
2023-01-18T00:55:58.129Z,98587.63
2023-01-18T00:58:25.774Z,98588.53
2023-01-18T01:00:53.949Z,98586.31
2023-01-18T01:03:21.491Z,98597.88
2023-01-18T01:06:06.192Z,98594.03
2023-01-18T01:08:35.210Z,98581.34
2023-01-18T01:11:07.604Z,98586.16
2023-01-18T01:13:53.254Z,98586.94
2023-01-18T01:16:39.155Z,98594.97
2023-01-18T01:19:24.489Z,98591.63
2023-01-18T01:22:09.630Z,98581.09
2023-01-18T01:24:55.913Z,98587.59
2023-01-18T01:27:23.243Z,98584.88
2023-01-18T01:29:52.527Z,98580.09
2023-01-18T01:32:19.921Z,98584.47
2023-01-18T01:34:47.419Z,98582.75
2023-01-18T01:37:14.826Z,98583.88
2023-01-18T01:39:43.516Z,98574.81
2023-01-18T01:42:12.001Z,98579.19
2023-01-18T01:44:51.721Z,98571.03
2023-01-18T01:47:28.270Z,98568.16
2023-01-18T01:49:58.455Z,98569.34
2023-01-18T01:52:28.303Z,98572.66
2023-01-18T01:54:59.341Z,98579.06
2023-01-18T01:57:29.269Z,98581.47
2023-01-18T01:59:59.286Z,98567.91
2023-01-18T02:02:26.765Z,98581.78
2023-01-18T02:04:55.076Z,98578.28
2023-01-18T02:07:22.940Z,98575.03
2023-01-18T02:09:50.968Z,98573.34
2023-01-18T02:12:20.316Z,98565.78
2023-01-18T02:14:47.747Z,98568.97
2023-01-18T02:17:28.206Z,98569.88
2023-01-18T02:20:11.388Z,98569.94
2023-01-18T02:22:54.328Z,98561.47
2023-01-18T02:25:39.846Z,98568.66
2023-01-18T02:28:11.165Z,98562.22
2023-01-18T02:30:42.875Z,98566.16
2023-01-18T02:33:14.413Z,98559.06
2023-01-18T02:35:46.769Z,98559.63
2023-01-18T02:38:16.750Z,98561.91
2023-01-18T02:41:08.221Z,98575.88
2023-01-18T02:43:54.892Z,98564.63
2023-01-18T02:46:33.816Z,98572.75
2023-01-18T02:49:07.240Z,98582.47
2023-01-18T02:51:34.712Z,98578.59
2023-01-18T02:54:03.175Z,98580.63
2023-01-18T02:56:34.857Z,98576.03
2023-01-18T02:59:07.188Z,98573.06
2023-01-18T03:01:38.133Z,98578.59
2023-01-18T03:04:10.518Z,98576.19
2023-01-18T03:06:39.212Z,98577.31
2023-01-18T03:09:06.588Z,98579.41
2023-01-18T03:11:39.810Z,98580.47
2023-01-18T03:14:16.345Z,98583.13
2023-01-18T03:16:57.855Z,98581.41
2023-01-18T03:19:50.744Z,98585.28
2023-01-18T03:22:18.305Z,98589.06
2023-01-18T03:24:45.921Z,98588.34
2023-01-18T03:27:31.389Z,98591.94
2023-01-18T03:30:17.877Z,98596.13
2023-01-18T03:33:04.098Z,98595.41
2023-01-18T03:35:32.344Z,98591.78
2023-01-18T03:38:00.589Z,98587.44
2023-01-18T03:40:29.822Z,98592.44
2023-01-18T03:43:02.602Z,98583.97
2023-01-18T03:45:33.754Z,98589.78
2023-01-18T03:48:02.189Z,98592.66
2023-01-18T03:50:34.089Z,98600.16
2023-01-18T03:53:07.308Z,98609.53
2023-01-18T03:55:40.335Z,98609.44
2023-01-18T03:58:10.880Z,98607.91
2023-01-18T04:00:40.687Z,98614.56
2023-01-18T04:03:08.541Z,98617.03
2023-01-18T04:05:36.138Z,98620.66
2023-01-18T04:08:03.684Z,98624.50
2023-01-18T04:10:31.232Z,98623.75
2023-01-18T04:12:58.973Z,98612.94
2023-01-18T04:15:26.597Z,98632.03
2023-01-18T04:17:55.984Z,98626.25
2023-01-18T04:20:23.386Z,98632.78
2023-01-18T04:22:53.607Z,98630.66
2023-01-18T04:25:21.570Z,98640.19
2023-01-18T04:27:48.976Z,98638.41
2023-01-18T04:30:17.256Z,98638.72
2023-01-18T04:32:46.147Z,98638.22
2023-01-18T04:35:15.094Z,98638.31
2023-01-18T04:37:42.522Z,98647.94
2023-01-18T04:40:10.799Z,98644.25
2023-01-18T04:42:38.215Z,98647.00
2023-01-18T04:45:06.740Z,98649.09
2023-01-18T04:47:34.151Z,98656.94
2023-01-18T04:50:03.033Z,98668.22
2023-01-18T04:52:33.244Z,98663.94
2023-01-18T04:55:00.656Z,98660.03
2023-01-18T04:57:28.153Z,98662.00
2023-01-18T04:59:55.493Z,98665.06
2023-01-18T05:02:22.895Z,98673.72
2023-01-18T05:04:50.282Z,98677.75
2023-01-18T05:07:17.671Z,98688.94
2023-01-18T05:09:46.378Z,98687.97
2023-01-18T05:12:13.740Z,98684.78
2023-01-18T05:14:41.183Z,98689.13
2023-01-18T05:17:08.558Z,98690.06
2023-01-18T05:19:35.978Z,98689.66
2023-01-18T05:22:03.437Z,98691.97
2023-01-18T05:24:31.108Z,98703.47
2023-01-18T05:27:00.091Z,98711.69
2023-01-18T05:29:27.555Z,98710.63
2023-01-18T05:31:54.973Z,98705.22
2023-01-18T05:34:22.439Z,98707.16
2023-01-18T05:36:49.830Z,98706.09
2023-01-18T05:39:17.227Z,98705.75
2023-01-18T05:41:44.588Z,98722.69
2023-01-18T05:44:13.697Z,98723.97
2023-01-18T05:46:41.201Z,98728.44
2023-01-18T05:49:08.802Z,98730.53
2023-01-18T05:51:36.560Z,98729.94
2023-01-18T05:54:04.027Z,98736.25
2023-01-18T05:56:31.421Z,98726.59
2023-01-18T05:58:58.755Z,98733.25
2023-01-18T06:01:27.565Z,98731.38
2023-01-18T06:03:55.272Z,98734.38
2023-01-18T06:06:22.637Z,98734.84
2023-01-18T06:08:51.105Z,98734.47
2023-01-18T06:11:18.453Z,98733.25
2023-01-18T06:13:45.814Z,98733.81
2023-01-18T06:16:13.214Z,98735.19
2023-01-18T06:18:42.211Z,98734.03
2023-01-18T06:21:11.315Z,98734.38
2023-01-18T06:23:38.693Z,98732.56
2023-01-18T06:26:06.367Z,98743.84
2023-01-18T06:28:33.825Z,98742.00
2023-01-18T06:31:04.645Z,98743.47
2023-01-18T06:33:31.988Z,98752.91
2023-01-18T06:36:01.718Z,98753.94
2023-01-18T06:38:29.624Z,98762.38
2023-01-18T06:40:57.116Z,98766.41
2023-01-18T06:43:24.868Z,98767.56
2023-01-18T06:45:53.864Z,98767.31
2023-01-18T06:48:22.040Z,98772.81
2023-01-18T06:50:49.467Z,98770.53
2023-01-18T06:53:18.951Z,98785.84
2023-01-18T06:55:53.529Z,98787.03
2023-01-18T06:58:20.871Z,98797.28
2023-01-18T07:00:48.372Z,98801.19
2023-01-18T07:03:15.787Z,98803.22
2023-01-18T07:05:43.369Z,98813.38
2023-01-18T07:08:11.139Z,98824.47
2023-01-18T07:10:39.861Z,98822.41
2023-01-18T07:13:07.218Z,98829.94
2023-01-18T07:15:34.535Z,98837.31
2023-01-18T07:18:03.576Z,98842.09
2023-01-18T07:20:30.924Z,98842.78
2023-01-18T07:22:58.806Z,98835.44
2023-01-18T07:25:27.475Z,98842.09
2023-01-18T07:27:57.620Z,98845.69
2023-01-18T07:30:25.022Z,98848.34
2023-01-18T07:32:53.547Z,98855.34
2023-01-18T07:35:22.649Z,98852.22
2023-01-18T07:37:50.697Z,98858.75
2023-01-18T07:40:18.558Z,98857.19
2023-01-18T07:42:45.893Z,98868.28
2023-01-18T07:45:14.992Z,98865.28
2023-01-18T07:47:42.560Z,98868.78
2023-01-18T07:50:11.547Z,98868.19
2023-01-18T07:52:38.900Z,98868.81
2023-01-18T07:55:07.177Z,98872.22
2023-01-18T07:57:34.518Z,98875.94
2023-01-18T08:00:04.898Z,98874.78
2023-01-18T08:02:33.774Z,98872.84
2023-01-18T08:05:01.813Z,98883.88
2023-01-18T08:07:29.189Z,98893.31
2023-01-18T08:09:57.930Z,98888.84
2023-01-18T08:12:25.329Z,98891.97
2023-01-18T08:14:52.654Z,98889.63
2023-01-18T08:17:20.141Z,98892.75
2023-01-18T08:19:48.831Z,98893.66
2023-01-18T08:22:16.194Z,98901.84
2023-01-18T08:24:43.532Z,98906.88
2023-01-18T08:27:10.873Z,98916.50
2023-01-18T08:29:38.246Z,98914.25
2023-01-18T08:32:05.761Z,98924.56
2023-01-18T08:34:33.071Z,98921.97
2023-01-18T08:37:03.588Z,98919.97
2023-01-18T08:39:30.970Z,98928.28
2023-01-18T08:41:58.398Z,98925.31
2023-01-18T08:44:25.922Z,98933.94
2023-01-18T08:46:53.270Z,98945.66
2023-01-18T08:49:20.691Z,98943.38
2023-01-18T08:51:48.044Z,98945.56
2023-01-18T08:54:16.724Z,98949.72
2023-01-18T08:56:44.044Z,98951.66
2023-01-18T08:59:11.521Z,98954.78
2023-01-18T09:01:38.981Z,98954.28
2023-01-18T09:04:06.401Z,98958.44
2023-01-18T09:06:33.823Z,98972.53
2023-01-18T09:09:03.587Z,98972.56
2023-01-18T09:11:32.378Z,98974.06
2023-01-18T09:14:03.120Z,98981.69
2023-01-18T09:16:30.971Z,98974.81
2023-01-18T09:18:58.729Z,98978.22
2023-01-18T09:21:27.876Z,98985.81
2023-01-18T09:23:55.246Z,98984.25
2023-01-18T09:26:22.600Z,98989.06
2023-01-18T09:28:52.885Z,98988.66
2023-01-18T09:31:21.199Z,98989.06
2023-01-18T09:33:53.614Z,99002.34
2023-01-18T09:36:26.060Z,98996.25
2023-01-18T09:38:54.141Z,98999.38
2023-01-18T09:41:29.259Z,99007.19
2023-01-18T09:44:01.249Z,99005.81
2023-01-18T09:46:28.749Z,99011.09
2023-01-18T09:48:58.821Z,99014.88
2023-01-18T09:51:29.123Z,99012.53
2023-01-18T09:54:07.579Z,99018.81
2023-01-18T09:56:40.381Z,99023.44
2023-01-18T09:59:14.479Z,99021.59
2023-01-18T10:01:42.080Z,99024.59
2023-01-18T10:04:17.051Z,99019.19
2023-01-18T10:06:48.002Z,99010.75
2023-01-18T10:09:17.408Z,99012.84
2023-01-18T10:11:48.060Z,99010.44
2023-01-18T10:14:20.215Z,99018.03
2023-01-18T10:16:55.555Z,99010.44
2023-01-18T10:19:26.896Z,99010.66
2023-01-18T10:21:57.772Z,98999.72
2023-01-18T10:24:49.599Z,99018.72
2023-01-18T10:27:31.841Z,99013.09
2023-01-18T10:30:12.566Z,99017.94
2023-01-18T10:32:42.954Z,99016.91
2023-01-18T10:35:26.087Z,99018.16
2023-01-18T10:37:56.295Z,99028.63
2023-01-18T10:40:23.905Z,99024.75
2023-01-18T10:42:53.052Z,99022.22
2023-01-18T10:45:25.136Z,99027.50
2023-01-18T10:47:54.376Z,99026.09
2023-01-18T10:50:24.485Z,99032.47
2023-01-18T10:52:51.858Z,99026.00
2023-01-18T10:55:22.123Z,99021.09
2023-01-18T10:57:52.057Z,99028.06
2023-01-18T11:00:23.111Z,99032.69
2023-01-18T11:02:52.233Z,99028.41
2023-01-18T11:05:29.042Z,99027.97
2023-01-18T11:08:13.633Z,99041.53
2023-01-18T11:10:41.450Z,99033.00
2023-01-18T11:13:25.171Z,99035.09
2023-01-18T11:16:12.573Z,99035.09
2023-01-18T11:18:55.910Z,99027.03
2023-01-18T11:21:23.473Z,99029.19
2023-01-18T11:23:51.827Z,99029.97
2023-01-18T11:26:20.931Z,99030.72
2023-01-18T11:28:58.416Z,99023.69
2023-01-18T11:31:28.024Z,99024.38
2023-01-18T11:33:57.233Z,99022.84
2023-01-18T11:36:35.603Z,99027.28
2023-01-18T11:39:29.385Z,99021.72
2023-01-18T11:42:22.484Z,99026.00
2023-01-18T11:44:57.655Z,99021.88
2023-01-18T11:47:30.072Z,99022.91
2023-01-18T11:50:05.627Z,99026.28
2023-01-18T11:52:43.097Z,99017.63
2023-01-18T11:55:20.597Z,99026.50
2023-01-18T11:57:47.976Z,99013.94
2023-01-18T12:00:16.737Z,99018.91
2023-01-18T12:02:56.459Z,99024.19
2023-01-18T12:05:38.781Z,99019.84
2023-01-18T12:08:20.538Z,99024.91
2023-01-18T12:10:58.813Z,99028.69
2023-01-18T12:13:35.911Z,99028.94
2023-01-18T12:16:12.583Z,99021.91
2023-01-18T12:19:18.566Z,99028.34
2023-01-18T12:21:52.791Z,99024.31
2023-01-18T12:24:30.390Z,99027.91
2023-01-18T12:26:59.588Z,99022.59
2023-01-18T12:29:45.821Z,99020.06
2023-01-18T12:32:27.522Z,99025.59
2023-01-18T12:35:15.728Z,99028.47
2023-01-18T12:37:57.306Z,99029.50
2023-01-18T12:40:36.635Z,99028.13
2023-01-18T12:43:12.388Z,99025.59
2023-01-18T12:45:41.454Z,99028.38
2023-01-18T12:48:16.351Z,99037.47
2023-01-18T12:50:48.148Z,99034.13
2023-01-18T12:53:20.733Z,99036.53
2023-01-18T12:55:50.775Z,99031.47
2023-01-18T12:58:21.197Z,99039.63
2023-01-18T13:00:50.720Z,99045.75
2023-01-18T13:03:21.469Z,99040.69
2023-01-18T13:05:54.937Z,99045.41
2023-01-18T13:08:29.013Z,99048.06
2023-01-18T13:10:57.621Z,99048.06
2023-01-18T13:13:28.350Z,99051.63
2023-01-18T13:16:02.366Z,99057.97
2023-01-18T13:18:34.495Z,99059.25
2023-01-18T13:21:10.715Z,99064.44
2023-01-18T13:23:44.410Z,99060.84
2023-01-18T13:26:22.250Z,99061.91
2023-01-18T13:28:49.651Z,99065.59
2023-01-18T13:31:17.020Z,99074.22
2023-01-18T13:33:45.797Z,99070.56
2023-01-18T13:36:17.165Z,99080.56
2023-01-18T13:38:49.771Z,99079.19
2023-01-18T13:41:23.057Z,99074.09
2023-01-18T13:44:14.056Z,99076.84
2023-01-18T13:46:42.352Z,99078.25
2023-01-18T13:49:37.229Z,99080.53
2023-01-18T13:52:29.697Z,99086.31
2023-01-18T13:55:03.635Z,99098.66
2023-01-18T13:57:32.797Z,99095.31
2023-01-18T14:00:02.373Z,99087.34
2023-01-18T14:02:33.889Z,99098.56
2023-01-18T14:05:05.507Z,99103.03
2023-01-18T14:07:41.180Z,99108.00
2023-01-18T14:10:21.669Z,99104.06
2023-01-18T14:12:50.909Z,99108.69
2023-01-18T14:15:46.907Z,99114.81
2023-01-18T14:18:21.885Z,99111.91
2023-01-18T14:21:12.519Z,99113.72
2023-01-18T14:24:14.365Z,99109.25
2023-01-18T14:26:43.052Z,99114.56
2023-01-18T14:29:15.622Z,99124.13
2023-01-18T14:31:44.917Z,99122.28
2023-01-18T14:34:26.531Z,99124.13
2023-01-18T14:36:54.937Z,99134.81
2023-01-18T14:39:23.846Z,99143.66
2023-01-18T14:41:54.177Z,99133.06
2023-01-18T14:44:23.540Z,99134.34
2023-01-18T14:46:52.288Z,99139.28
2023-01-18T14:49:27.901Z,99139.50
2023-01-18T14:51:55.443Z,99133.03
2023-01-18T14:54:25.778Z,99141.44
2023-01-18T14:57:00.901Z,99152.53
2023-01-18T14:59:30.934Z,99151.50
2023-01-18T15:02:00.101Z,99154.22
2023-01-18T15:04:29.335Z,99161.88
2023-01-18T15:06:58.797Z,99167.31
2023-01-18T15:09:28.355Z,99170.16
2023-01-18T15:11:57.582Z,99164.03
2023-01-18T15:14:26.938Z,99173.38
2023-01-18T15:16:55.961Z,99176.19
2023-01-18T15:19:24.981Z,99184.19
2023-01-18T15:21:52.673Z,99184.72
2023-01-18T15:24:22.609Z,99188.19
2023-01-18T15:26:55.813Z,99189.28
2023-01-18T15:29:26.375Z,99193.88
2023-01-18T15:31:55.015Z,99195.91
2023-01-18T15:34:27.773Z,99200.88
2023-01-18T15:36:56.233Z,99207.13
2023-01-18T15:39:23.925Z,99207.81
2023-01-18T15:41:53.422Z,99209.94
2023-01-18T15:44:35.250Z,99202.13
2023-01-18T15:47:03.122Z,99209.22
2023-01-18T15:49:30.605Z,99212.56
2023-01-18T15:51:57.966Z,99204.91
2023-01-18T15:54:27.984Z,99218.66
2023-01-18T15:56:59.947Z,99214.81
2023-01-18T15:59:28.152Z,99219.53
2023-01-18T16:02:13.237Z,99225.28
2023-01-18T16:04:41.332Z,99227.16
2023-01-18T16:07:25.129Z,99218.94
2023-01-18T16:10:30.045Z,99229.50
2023-01-18T16:13:22.449Z,99232.94
2023-01-18T16:16:16.754Z,99233.91
2023-01-18T16:18:45.951Z,99240.50
2023-01-18T16:21:18.606Z,99235.44
2023-01-18T16:23:47.295Z,99237.63
2023-01-18T16:26:15.665Z,99241.94
2023-01-18T16:28:44.526Z,99236.66
2023-01-18T16:31:12.160Z,99240.13
2023-01-18T16:33:40.003Z,99246.81
2023-01-18T16:36:17.515Z,99242.19
2023-01-18T16:38:44.975Z,99244.09
2023-01-18T16:41:12.777Z,99240.56
2023-01-18T16:43:40.155Z,99247.34
2023-01-18T16:46:08.833Z,99252.84
2023-01-18T16:48:37.128Z,99246.56
2023-01-18T16:51:07.938Z,99248.44
2023-01-18T16:53:35.457Z,99246.31
2023-01-18T16:56:03.226Z,99249.72
2023-01-18T16:58:30.594Z,99254.50
2023-01-18T17:01:01.048Z,99254.09
2023-01-18T17:03:29.768Z,99243.28
2023-01-18T17:05:57.102Z,99249.09
2023-01-18T17:08:24.488Z,99243.28
2023-01-18T17:10:54.424Z,99259.06
2023-01-18T17:13:22.133Z,99252.53
2023-01-18T17:15:50.051Z,99250.03
2023-01-18T17:18:20.543Z,99258.69
2023-01-18T17:20:49.752Z,99261.34
2023-01-18T17:23:17.489Z,99270.22
2023-01-18T17:25:44.819Z,99270.03
2023-01-18T17:28:13.968Z,99281.94
2023-01-18T17:30:42.132Z,99277.31
2023-01-18T17:33:16.770Z,99278.03
2023-01-18T17:35:44.201Z,99284.31
2023-01-18T17:38:23.301Z,99295.56
2023-01-18T17:40:51.911Z,99291.63
2023-01-18T17:43:32.240Z,99294.28
2023-01-18T17:46:05.069Z,99301.50
2023-01-18T17:48:32.582Z,99301.44
2023-01-18T17:50:59.983Z,99305.91
2023-01-18T17:53:28.737Z,99308.06
2023-01-18T17:55:56.212Z,99311.63
2023-01-18T17:58:23.672Z,99314.22
2023-01-18T18:00:51.172Z,99313.41
2023-01-18T18:03:19.980Z,99317.28
2023-01-18T18:05:47.442Z,99311.41
2023-01-18T18:08:14.848Z,99309.97
2023-01-18T18:10:44.248Z,99325.66
2023-01-18T18:13:11.638Z,99322.50
2023-01-18T18:15:39.042Z,99325.56
2023-01-18T18:18:12.222Z,99321.09
2023-01-18T18:20:49.537Z,99317.41
2023-01-18T18:23:16.962Z,99320.91
2023-01-18T18:25:48.142Z,99333.50
2023-01-18T18:28:15.494Z,99330.91
2023-01-18T18:30:43.052Z,99340.47
2023-01-18T18:33:10.460Z,99340.13
2023-01-18T18:35:37.819Z,99340.28
2023-01-18T18:38:05.240Z,99343.69
2023-01-18T18:40:32.649Z,99351.41
2023-01-18T18:43:03.036Z,99347.56
2023-01-18T18:45:31.512Z,99348.13
2023-01-18T18:47:59.119Z,99334.91
2023-01-18T18:50:26.655Z,99348.59
2023-01-18T18:52:54.417Z,99339.69
2023-01-18T18:55:21.797Z,99343.50
2023-01-18T18:57:49.779Z,99347.75
2023-01-18T19:00:19.580Z,99349.84
2023-01-18T19:02:46.997Z,99351.25
2023-01-18T19:05:15.427Z,99356.00
2023-01-18T19:07:43.274Z,99353.19
2023-01-18T19:10:14.417Z,99363.09
2023-01-18T19:12:41.757Z,99365.91
2023-01-18T19:15:09.804Z,99358.03
2023-01-18T19:17:38.431Z,99362.94
2023-01-18T19:20:09.879Z,99357.03
2023-01-18T19:22:38.055Z,99358.44
2023-01-18T19:25:06.281Z,99371.41
2023-01-18T19:27:33.649Z,99373.09
2023-01-18T19:30:00.993Z,99367.34
2023-01-18T19:32:28.321Z,99369.19
2023-01-18T19:34:56.955Z,99364.69
2023-01-18T19:37:24.291Z,99373.47
2023-01-18T19:39:51.633Z,99368.38
2023-01-18T19:42:19.110Z,99357.44
2023-01-18T19:44:46.467Z,99363.53
2023-01-18T19:47:13.857Z,99365.75
2023-01-18T19:49:43.033Z,99359.25
2023-01-18T19:52:17.108Z,99364.97
2023-01-18T19:54:44.544Z,99361.31
2023-01-18T19:57:11.879Z,99358.09
2023-01-18T19:59:39.459Z,99365.00
2023-01-18T20:02:07.012Z,99368.22
2023-01-18T20:04:34.672Z,99361.69
2023-01-18T20:07:03.568Z,99362.56
2023-01-18T20:09:42.759Z,99358.84
2023-01-18T20:12:12.436Z,99353.22
2023-01-18T20:14:41.887Z,99356.09
2023-01-18T20:17:09.901Z,99359.75
2023-01-18T20:19:37.274Z,99359.97
2023-01-18T20:22:04.697Z,99360.97
2023-01-18T20:24:33.499Z,99360.13
2023-01-18T20:27:14.821Z,99359.34
2023-01-18T20:29:43.213Z,99361.81
2023-01-18T20:32:16.221Z,99362.59
2023-01-18T20:34:46.470Z,99364.47
2023-01-18T20:37:14.398Z,99357.34
2023-01-18T20:39:43.524Z,99363.09
2023-01-18T20:42:10.937Z,99354.53
2023-01-18T20:44:39.013Z,99353.56
2023-01-18T20:47:06.434Z,99358.63
2023-01-18T20:49:38.240Z,99360.88
2023-01-18T20:52:06.511Z,99369.63
2023-01-18T20:54:35.674Z,99370.38
2023-01-18T20:57:05.483Z,99369.22
2023-01-18T20:59:33.818Z,99373.47
2023-01-18T21:02:01.828Z,99366.16
2023-01-18T21:04:29.673Z,99377.94
2023-01-18T21:06:58.211Z,99367.38
2023-01-18T21:09:26.181Z,99363.94
2023-01-18T21:11:53.615Z,99360.28
2023-01-18T21:14:22.552Z,99376.13
2023-01-18T21:16:50.166Z,99374.09
2023-01-18T21:19:17.931Z,99371.25
2023-01-18T21:21:45.297Z,99366.97
2023-01-18T21:24:12.674Z,99363.09
2023-01-18T21:26:40.086Z,99375.72
2023-01-18T21:29:07.579Z,99378.56
2023-01-18T21:31:36.422Z,99379.16
2023-01-18T21:34:03.945Z,99381.41
2023-01-18T21:36:31.556Z,99387.28
2023-01-18T21:38:58.912Z,99380.56
2023-01-18T21:41:43.882Z,99385.44
2023-01-18T21:44:29.759Z,99392.06
2023-01-18T21:46:58.725Z,99389.94
2023-01-18T21:50:11.272Z,99378.94
2023-01-18T21:52:49.015Z,99383.00
2023-01-18T21:55:16.677Z,99389.88
2023-01-18T21:57:44.189Z,99386.25
2023-01-18T22:00:12.847Z,99383.38
2023-01-18T22:02:41.719Z,99385.84
2023-01-18T22:05:09.795Z,99386.22
2023-01-18T22:07:37.294Z,99385.16
2023-01-18T22:10:07.053Z,99391.09
2023-01-18T22:12:38.927Z,99384.41
2023-01-18T22:15:21.994Z,99388.28
2023-01-18T22:17:50.842Z,99381.75
2023-01-18T22:20:18.939Z,99390.91
2023-01-18T22:22:49.492Z,99389.06
2023-01-18T22:25:16.977Z,99388.06
2023-01-18T22:27:44.400Z,99389.50
2023-01-18T22:30:12.918Z,99393.34
2023-01-18T22:32:40.302Z,99409.22
2023-01-18T22:35:09.667Z,99386.44
2023-01-18T22:37:37.022Z,99389.91
2023-01-18T22:40:05.283Z,99386.69
2023-01-18T22:42:32.655Z,99386.25
2023-01-18T22:45:00.024Z,99391.13
2023-01-18T22:47:27.417Z,99377.91
2023-01-18T22:49:54.797Z,99392.72
2023-01-18T22:52:23.490Z,99384.19
2023-01-18T22:54:50.832Z,99379.97
2023-01-18T22:57:18.199Z,99383.41
2023-01-18T22:59:45.559Z,99391.50
2023-01-18T23:02:12.933Z,99393.97
2023-01-18T23:04:40.262Z,99384.63
2023-01-18T23:07:07.687Z,99397.63
2023-01-18T23:09:36.385Z,99401.06
2023-01-18T23:12:03.892Z,99399.91
2023-01-18T23:14:48.973Z,99398.88
2023-01-18T23:17:34.180Z,99403.50
2023-01-18T23:20:01.522Z,99393.56
2023-01-18T23:22:28.928Z,99384.63
2023-01-18T23:24:57.899Z,99398.41
2023-01-18T23:27:25.414Z,99395.75
2023-01-18T23:29:56.983Z,99387.88
2023-01-18T23:32:27.126Z,99390.28
2023-01-18T23:34:54.977Z,99394.31
2023-01-18T23:37:22.903Z,99405.53
2023-01-18T23:40:07.987Z,99395.59
2023-01-18T23:42:54.548Z,99391.13
2023-01-18T23:45:39.143Z,99394.97
2023-01-18T23:48:24.976Z,99393.66
2023-01-18T23:51:09.553Z,99398.94
2023-01-18T23:53:54.479Z,99393.72
2023-01-18T23:56:22.050Z,99400.78
2023-01-18T23:58:51.227Z,99410.53
